Enon, Ohio
Current Conditions -  °F | °C
As of 7:56 PM on Thursday 27 Nov 2014 (Local Time) from KSGH Reporting Station
Unknown Precip Unknown Precip  
Wind Chill: 17°   Ceiling: 2200
Heat Index: 28°   Visibility: 8mi
Dew Point: 21°   Wind: 15mph
Humidity: 75%   Direction: 260°W
Pressure: 30.34"   Gusts: NA
Location:  39.88°N, 83.94°W
Report Text: KSGH 280056Z AUTO 26013KT 8SM UP BKN022 OVC030 M02/M06 A3034 RMK AO2 T10221061 UPE09B55 P0000 SLP286 $
Loading
Personal Weather Stations






























Interactive Weather Map New forecast layout! Learn more

10-Day Weather Forecast

Advertisements
Track Severe Weather on mobile